createdAt,value
2022-12-15T00:00:42.031Z,15.63
2022-12-15T00:03:44.114Z,15.02
2022-12-15T00:06:46.150Z,14.98
2022-12-15T00:09:48.104Z,15.68
2022-12-15T00:12:50.039Z,16.42
2022-12-15T00:15:53.323Z,16.58
2022-12-15T00:18:55.426Z,16.48
2022-12-15T00:21:57.385Z,17.15
2022-12-15T00:24:59.315Z,17.08
2022-12-15T00:28:01.295Z,16.88
2022-12-15T00:31:04.956Z,17.23
2022-12-15T00:34:07.100Z,17.15
2022-12-15T00:37:08.998Z,16.35
2022-12-15T00:40:12.348Z,15.70
2022-12-15T00:43:16.485Z,15.18
2022-12-15T00:46:19.859Z,15.30
2022-12-15T00:49:22.168Z,15.52
2022-12-15T00:52:24.031Z,15.38
2022-12-15T00:55:25.939Z,15.38
2022-12-15T00:58:27.796Z,16.10
2022-12-15T01:01:31.241Z,17.08
2022-12-15T01:04:33.390Z,16.35
2022-12-15T01:07:38.096Z,16.58
2022-12-15T01:10:40.070Z,18.08
2022-12-15T01:13:41.959Z,17.35
2022-12-15T01:16:51.279Z,17.20
2022-12-15T01:19:53.219Z,19.13
2022-12-15T01:22:56.158Z,19.55
2022-12-15T01:25:58.307Z,21.25
2022-12-15T01:29:00.181Z,21.42
2022-12-15T01:32:03.572Z,21.70
2022-12-15T01:35:07.095Z,21.23
2022-12-15T01:38:09.629Z,21.27
2022-12-15T01:41:12.073Z,21.20
2022-12-15T01:44:17.007Z,19.55
2022-12-15T01:47:24.257Z,19.85
2022-12-15T01:50:29.783Z,19.27
2022-12-15T01:53:35.252Z,19.85
2022-12-15T01:56:41.918Z,19.75
2022-12-15T01:59:49.541Z,20.88
2022-12-15T02:02:53.851Z,20.17
2022-12-15T02:05:57.904Z,20.67
2022-12-15T02:09:01.487Z,19.95
2022-12-15T02:12:15.352Z,20.00
2022-12-15T02:15:20.931Z,20.75
2022-12-15T02:18:32.544Z,20.75
2022-12-15T02:21:41.243Z,20.00
2022-12-15T02:25:06.435Z,19.42
2022-12-15T02:28:13.527Z,19.02
2022-12-15T02:31:25.162Z,18.73
2022-12-15T02:34:35.332Z,18.63
2022-12-15T02:37:39.342Z,19.38
2022-12-15T02:40:41.327Z,18.67
2022-12-15T02:43:43.337Z,18.02
2022-12-15T02:46:58.561Z,17.92
2022-12-15T02:50:21.805Z,17.50
2022-12-15T02:53:40.704Z,18.15
2022-12-15T02:56:46.872Z,18.53
2022-12-15T02:59:56.867Z,19.38
2022-12-15T03:03:00.642Z,17.77
2022-12-15T03:06:03.272Z,19.42
2022-12-15T03:09:05.240Z,17.73
2022-12-15T03:12:08.028Z,16.23
2022-12-15T03:15:10.867Z,16.48
2022-12-15T03:18:14.897Z,16.00
2022-12-15T03:21:16.811Z,15.60
2022-12-15T03:24:19.200Z,16.08
2022-12-15T03:27:21.094Z,15.80
2022-12-15T03:30:23.010Z,15.55
2022-12-15T03:33:26.429Z,15.73
2022-12-15T03:36:28.378Z,15.13
2022-12-15T03:39:30.294Z,15.55
2022-12-15T03:42:34.099Z,16.67
2022-12-15T03:45:36.112Z,15.77
2022-12-15T03:48:39.445Z,14.82
2022-12-15T03:51:41.291Z,15.25
2022-12-15T03:54:43.198Z,17.23
2022-12-15T03:57:46.965Z,17.20
2022-12-15T04:00:48.968Z,16.02
2022-12-15T04:03:56.966Z,17.60
2022-12-15T04:07:02.145Z,17.83
2022-12-15T04:10:05.763Z,16.98
2022-12-15T04:13:11.618Z,17.13
2022-12-15T04:16:19.361Z,18.75
2022-12-15T04:19:23.450Z,20.73
2022-12-15T04:22:25.346Z,20.05
2022-12-15T04:25:28.015Z,21.83
2022-12-15T04:28:31.954Z,22.55
2022-12-15T04:31:34.279Z,23.95
2022-12-15T04:34:37.581Z,23.42
2022-12-15T04:37:39.530Z,25.00
2022-12-15T04:40:41.480Z,24.42
2022-12-15T04:43:43.895Z,25.23
2022-12-15T04:46:45.868Z,26.83
2022-12-15T04:49:49.116Z,25.17
2022-12-15T04:52:51.606Z,25.38
2022-12-15T04:55:55.582Z,24.63
2022-12-15T04:58:58.012Z,25.77
2022-12-15T05:02:02.204Z,26.00
2022-12-15T05:05:06.151Z,24.35
2022-12-15T05:08:08.177Z,25.02
2022-12-15T05:11:10.119Z,26.85
2022-12-15T05:14:12.067Z,27.42
2022-12-15T05:17:13.975Z,28.25
2022-12-15T05:20:17.806Z,27.73
2022-12-15T05:23:19.691Z,29.58
2022-12-15T05:26:21.698Z,28.85
2022-12-15T05:29:23.654Z,29.50
2022-12-15T05:32:25.682Z,29.80
2022-12-15T05:35:28.976Z,30.35
2022-12-15T05:38:30.896Z,30.40
2022-12-15T05:41:32.870Z,28.92
2022-12-15T05:44:34.831Z,29.92
2022-12-15T05:47:36.756Z,28.30
2022-12-15T05:50:40.305Z,27.90
2022-12-15T05:53:42.694Z,26.73
2022-12-15T05:56:44.709Z,27.85
2022-12-15T05:59:46.612Z,28.98
2022-12-15T06:02:50.625Z,28.50
2022-12-15T06:05:56.567Z,29.42
2022-12-15T06:08:59.630Z,30.73
2022-12-15T06:12:01.493Z,30.80
2022-12-15T06:15:03.946Z,30.52
2022-12-15T06:18:05.938Z,30.45
2022-12-15T06:21:11.249Z,28.50
2022-12-15T06:24:13.527Z,29.92
2022-12-15T06:27:15.456Z,30.10
2022-12-15T06:30:17.436Z,29.27
2022-12-15T06:33:19.749Z,30.38
2022-12-15T06:36:23.346Z,29.70
2022-12-15T06:39:25.437Z,30.15
2022-12-15T06:42:27.438Z,31.85
2022-12-15T06:45:32.145Z,32.90
2022-12-15T06:48:34.051Z,31.25
2022-12-15T06:51:38.451Z,32.63
2022-12-15T06:54:40.371Z,29.17
2022-12-15T06:57:45.088Z,30.33
2022-12-15T07:00:49.940Z,32.13
2022-12-15T07:03:52.269Z,27.67
2022-12-15T07:06:55.752Z,30.60
2022-12-15T07:09:57.651Z,30.45
2022-12-15T07:12:59.546Z,29.90
2022-12-15T07:16:02.243Z,31.58
2022-12-15T07:19:04.246Z,29.90
2022-12-15T07:22:07.551Z,29.45
2022-12-15T07:25:09.886Z,30.50
2022-12-15T07:28:11.761Z,32.25
2022-12-15T07:31:13.712Z,33.35
2022-12-15T07:34:15.653Z,34.35
2022-12-15T07:37:26.047Z,33.30
2022-12-15T07:40:28.027Z,30.83
2022-12-15T07:43:30.568Z,31.73
2022-12-15T07:46:33.012Z,31.52
2022-12-15T07:49:36.166Z,33.88
2022-12-15T07:52:39.458Z,34.38
2022-12-15T07:56:05.531Z,35.13
2022-12-15T07:59:03.401Z,34.22
2022-12-15T08:02:05.529Z,34.13
2022-12-15T08:05:08.565Z,34.08
2022-12-15T08:08:15.336Z,34.88
2022-12-15T08:11:19.061Z,33.25
2022-12-15T08:14:21.428Z,34.50
2022-12-15T08:17:23.664Z,33.58
2022-12-15T08:20:25.585Z,32.50
2022-12-15T08:23:29.283Z,33.33
2022-12-15T08:26:31.783Z,33.05
2022-12-15T08:29:50.810Z,33.80
2022-12-15T08:32:53.566Z,33.90
2022-12-15T08:35:59.909Z,32.53
2022-12-15T08:39:03.562Z,35.15
2022-12-15T08:42:05.558Z,32.08
2022-12-15T08:45:08.592Z,33.90
2022-12-15T08:48:12.323Z,32.90
2022-12-15T08:51:15.026Z,34.88
2022-12-15T08:54:19.072Z,34.80
2022-12-15T08:57:21.028Z,32.10
2022-12-15T09:00:23.094Z,32.83
2022-12-15T09:03:26.120Z,35.38
2022-12-15T09:06:30.925Z,32.67
2022-12-15T09:09:34.272Z,34.72
2022-12-15T09:12:36.147Z,34.05
2022-12-15T09:16:07.562Z,34.10
2022-12-15T09:19:00.353Z,33.83
2022-12-15T09:22:02.458Z,32.20
2022-12-15T09:25:06.564Z,34.72
2022-12-15T09:28:08.617Z,34.35
2022-12-15T09:31:13.907Z,34.67
2022-12-15T09:34:16.181Z,34.38
2022-12-15T09:37:18.061Z,35.88
2022-12-15T09:40:22.033Z,35.80
2022-12-15T09:43:46.416Z,33.75
2022-12-15T09:47:01.625Z,36.47
2022-12-15T09:50:09.656Z,33.42
2022-12-15T09:56:49.933Z,32.25
2022-12-15T10:00:10.193Z,32.58
2022-12-15T10:03:43.792Z,32.72
2022-12-15T10:06:51.810Z,35.17
2022-12-15T10:09:54.634Z,35.73
2022-12-15T10:13:10.293Z,35.58
2022-12-15T10:16:21.228Z,34.78
2022-12-15T10:19:31.477Z,34.97
2022-12-15T10:22:36.283Z,36.28
2022-12-15T10:25:38.664Z,34.92
2022-12-15T10:28:59.642Z,34.60
2022-12-15T10:32:05.137Z,34.72
2022-12-15T10:35:13.334Z,34.10
2022-12-15T10:38:24.185Z,35.08
2022-12-15T10:41:26.401Z,35.75
2022-12-15T10:44:37.269Z,35.20
2022-12-15T10:47:39.154Z,35.30
2022-12-15T10:50:41.115Z,34.75
2022-12-15T10:53:50.348Z,35.25
2022-12-15T10:56:54.495Z,34.75
2022-12-15T11:00:25.663Z,35.38
2022-12-15T11:03:27.774Z,35.65
2022-12-15T11:06:31.773Z,38.13
2022-12-15T11:09:35.617Z,35.13
2022-12-15T11:12:37.690Z,33.03
2022-12-15T11:15:47.162Z,32.42
2022-12-15T11:18:58.064Z,34.35
2022-12-15T11:22:04.838Z,27.83
2022-12-15T11:25:20.384Z,28.48
2022-12-15T11:28:28.847Z,27.67
2022-12-15T11:31:37.508Z,28.58
2022-12-15T11:34:44.492Z,28.40
2022-12-15T11:37:52.643Z,28.10
2022-12-15T11:40:56.913Z,29.83
2022-12-15T11:44:18.582Z,29.13
2022-12-15T11:47:34.019Z,28.70
2022-12-15T11:50:42.762Z,31.00
2022-12-15T11:54:00.189Z,30.55
2022-12-15T11:57:16.622Z,30.73
2022-12-15T12:00:20.156Z,31.73
2022-12-15T12:03:34.898Z,30.00
2022-12-15T12:06:48.081Z,29.10
2022-12-15T12:10:02.971Z,29.48
2022-12-15T12:13:14.127Z,28.15
2022-12-15T12:16:28.974Z,27.05
2022-12-15T12:19:37.614Z,25.27
2022-12-15T12:22:49.572Z,27.35
2022-12-15T12:26:03.130Z,27.02
2022-12-15T12:29:14.533Z,26.92
2022-12-15T12:32:25.210Z,26.42
2022-12-15T12:35:36.831Z,23.52
2022-12-15T12:38:42.173Z,23.40
2022-12-15T12:41:50.615Z,23.83
2022-12-15T12:44:54.369Z,23.13
2022-12-15T12:48:00.665Z,22.70
2022-12-15T12:51:21.705Z,22.40
2022-12-15T12:54:50.291Z,25.35
2022-12-15T12:57:53.458Z,26.25
2022-12-15T13:01:06.159Z,24.92
2022-12-15T13:04:11.129Z,25.52
2022-12-15T13:10:43.668Z,27.10
2022-12-15T13:13:51.313Z,26.42
2022-12-15T13:17:25.022Z,26.75
2022-12-15T13:20:23.104Z,28.23
2022-12-15T13:23:37.438Z,28.55
2022-12-15T13:26:44.746Z,28.85
2022-12-15T13:29:58.471Z,28.55
2022-12-15T13:33:16.593Z,29.60
2022-12-15T13:37:02.976Z,38.17
2022-12-15T13:40:26.206Z,31.67
2022-12-15T13:43:46.472Z,34.03
2022-12-15T13:46:53.031Z,31.48
2022-12-15T13:50:01.818Z,31.10
2022-12-15T13:53:23.125Z,31.13
2022-12-15T13:56:54.771Z,32.30
2022-12-15T14:00:02.129Z,32.70
2022-12-15T14:03:05.402Z,35.08
2022-12-15T14:06:13.523Z,35.80
2022-12-15T14:09:20.079Z,35.55
2022-12-15T14:12:23.230Z,33.08
2022-12-15T14:15:30.004Z,35.10
2022-12-15T14:18:34.140Z,34.33
2022-12-15T14:21:36.042Z,34.47
2022-12-15T14:24:47.045Z,35.60
2022-12-15T14:27:51.531Z,35.53
2022-12-15T14:30:58.240Z,35.00
2022-12-15T14:34:03.762Z,35.97
2022-12-15T14:37:10.717Z,33.70
2022-12-15T14:40:15.885Z,35.10
2022-12-15T14:43:21.064Z,36.03
2022-12-15T14:46:27.131Z,36.58
2022-12-15T14:49:38.963Z,35.78
2022-12-15T14:52:43.513Z,35.72
2022-12-15T14:55:45.773Z,36.45
2022-12-15T14:58:48.430Z,33.70
2022-12-15T15:01:58.702Z,34.38
2022-12-15T15:05:05.094Z,32.83
2022-12-15T15:08:13.217Z,30.88
2022-12-15T15:11:25.841Z,31.80
2022-12-15T15:14:32.678Z,32.88
2022-12-15T15:17:38.705Z,33.60
2022-12-15T15:20:55.502Z,30.73
2022-12-15T15:23:58.898Z,30.13
2022-12-15T15:27:25.336Z,33.35
2022-12-15T15:30:27.450Z,31.00
2022-12-15T15:33:31.036Z,31.95
2022-12-15T15:36:34.897Z,31.98
2022-12-15T15:39:36.798Z,34.90
2022-12-15T15:42:38.708Z,34.53
2022-12-15T15:45:43.741Z,33.80
2022-12-15T15:48:50.541Z,32.67
2022-12-15T15:51:54.852Z,33.53
2022-12-15T15:54:56.829Z,34.88
2022-12-15T15:58:01.573Z,38.53
2022-12-15T16:01:09.549Z,35.80
2022-12-15T16:04:16.110Z,33.17
2022-12-15T16:07:23.100Z,33.47
2022-12-15T16:10:25.996Z,34.22
2022-12-15T16:13:28.121Z,32.95
2022-12-15T16:16:32.020Z,36.15
2022-12-15T16:19:39.742Z,30.35
2022-12-15T16:22:44.223Z,39.50
2022-12-15T16:25:50.940Z,32.50
2022-12-15T16:28:53.158Z,37.17
2022-12-15T16:31:55.343Z,29.60
2022-12-15T16:34:58.676Z,30.42
2022-12-15T16:38:00.736Z,30.00
2022-12-15T16:41:06.678Z,29.77
2022-12-15T16:44:12.513Z,30.08
2022-12-15T16:47:17.247Z,29.90
2022-12-15T16:50:24.921Z,30.48
2022-12-15T16:53:30.687Z,30.23
2022-12-15T16:56:33.281Z,30.10
2022-12-15T16:59:36.256Z,34.97
2022-12-15T17:02:38.519Z,30.88
2022-12-15T17:05:44.686Z,30.08
2022-12-15T17:08:51.861Z,30.85
2022-12-15T17:11:57.817Z,31.95
2022-12-15T17:14:59.848Z,29.20
2022-12-15T17:18:01.699Z,31.58
2022-12-15T17:21:08.276Z,29.27
2022-12-15T17:24:16.678Z,28.45
2022-12-15T17:27:25.056Z,21.33
2022-12-15T17:30:27.550Z,30.20
2022-12-15T17:33:31.503Z,29.10
2022-12-15T17:36:35.045Z,26.88
2022-12-15T17:39:37.534Z,27.95
2022-12-15T17:42:39.913Z,27.65
2022-12-15T17:45:42.471Z,29.17
2022-12-15T17:48:46.184Z,29.05
2022-12-15T17:51:50.907Z,29.83
2022-12-15T17:54:53.197Z,31.15
2022-12-15T17:57:56.233Z,31.58
2022-12-15T18:00:59.052Z,31.92
2022-12-15T18:04:02.893Z,31.35
2022-12-15T18:07:14.144Z,30.98
2022-12-15T18:10:28.968Z,30.88
2022-12-15T18:13:35.557Z,31.90
2022-12-15T18:16:38.806Z,31.63
2022-12-15T18:19:41.598Z,31.65
2022-12-15T18:22:46.061Z,31.00
2022-12-15T18:25:48.846Z,31.35
2022-12-15T18:28:51.404Z,31.83
2022-12-15T18:31:53.474Z,31.38
2022-12-15T18:34:56.741Z,30.45
2022-12-15T18:38:00.469Z,30.58
2022-12-15T18:41:03.758Z,30.10
2022-12-15T18:44:06.588Z,29.35
2022-12-15T18:47:15.741Z,29.77
2022-12-15T18:50:20.907Z,32.05
2022-12-15T18:53:29.333Z,30.92
2022-12-15T18:56:32.539Z,31.75
2022-12-15T18:59:35.007Z,31.52
2022-12-15T19:02:37.810Z,30.85
2022-12-15T19:05:43.689Z,30.25
2022-12-15T19:08:48.686Z,30.40
2022-12-15T19:11:51.255Z,31.30
2022-12-15T19:14:55.237Z,31.52
2022-12-15T19:17:57.648Z,30.67
2022-12-15T19:21:10.482Z,31.65
2022-12-15T19:24:18.180Z,32.40
2022-12-15T19:27:25.730Z,30.70
2022-12-15T19:30:30.607Z,31.67
2022-12-15T19:33:36.223Z,31.70
2022-12-15T19:36:39.316Z,33.40
2022-12-15T19:39:43.441Z,34.15
2022-12-15T19:42:49.482Z,33.75
2022-12-15T19:45:52.803Z,35.88
2022-12-15T19:48:56.856Z,33.40
2022-12-15T19:51:59.592Z,34.63
2022-12-15T19:55:03.774Z,35.58
2022-12-15T19:58:16.862Z,35.63
2022-12-15T20:01:20.101Z,34.08
2022-12-15T20:04:24.382Z,35.22
2022-12-15T20:07:30.633Z,33.28
2022-12-15T20:10:34.999Z,34.35
2022-12-15T20:13:37.482Z,34.85
2022-12-15T20:16:40.901Z,33.75
2022-12-15T20:19:44.048Z,35.72
2022-12-15T20:22:50.156Z,35.70
2022-12-15T20:25:55.085Z,35.92
2022-12-15T20:29:12.055Z,35.40
2022-12-15T20:32:17.554Z,35.28
2022-12-15T20:35:22.226Z,37.00
2022-12-15T20:38:28.616Z,35.17
2022-12-15T20:41:32.856Z,34.08
2022-12-15T20:44:34.814Z,33.35
2022-12-15T20:47:43.317Z,34.28
2022-12-15T20:50:47.694Z,32.10
2022-12-15T20:53:50.487Z,31.70
2022-12-15T20:56:54.829Z,32.85
2022-12-15T20:59:57.177Z,33.55
2022-12-15T21:03:00.713Z,32.65
2022-12-15T21:06:03.164Z,30.20
2022-12-15T21:09:10.809Z,30.00
2022-12-15T21:12:19.562Z,31.35
2022-12-15T21:15:25.364Z,31.85
2022-12-15T21:19:10.981Z,30.38
2022-12-15T21:21:55.312Z,29.63
2022-12-15T21:24:58.606Z,31.55
2022-12-15T21:28:01.895Z,31.35
2022-12-15T21:31:03.903Z,32.45
2022-12-15T21:34:06.027Z,30.55
2022-12-15T21:37:20.666Z,31.38
2022-12-15T21:40:25.789Z,33.47
2022-12-15T21:43:31.404Z,34.67
2022-12-15T21:46:33.401Z,32.90
2022-12-15T21:49:35.334Z,33.38
2022-12-15T21:52:37.390Z,33.45
2022-12-15T21:55:39.411Z,35.58
2022-12-15T21:58:42.940Z,33.92
2022-12-15T22:01:45.445Z,32.83
2022-12-15T22:04:47.442Z,35.42
2022-12-15T22:07:49.895Z,36.20
2022-12-15T22:10:52.237Z,38.83
2022-12-15T22:13:57.081Z,37.53
2022-12-15T22:17:00.167Z,37.22
2022-12-15T22:20:02.071Z,37.10
2022-12-15T22:23:04.034Z,35.83
2022-12-15T22:26:06.061Z,37.20
2022-12-15T22:29:13.924Z,41.00
2022-12-15T22:32:17.170Z,40.47
2022-12-15T22:35:21.838Z,38.30
2022-12-15T22:38:24.296Z,36.47
2022-12-15T22:41:26.242Z,38.55
2022-12-15T22:44:31.842Z,38.95
2022-12-15T22:47:36.340Z,37.47
2022-12-15T22:50:39.080Z,37.70
2022-12-15T22:53:41.334Z,38.40
2022-12-15T22:56:43.465Z,38.95
2022-12-15T22:59:53.571Z,37.63
2022-12-15T23:06:05.887Z,36.95
2022-12-15T23:09:10.078Z,38.33
2022-12-15T23:12:11.967Z,38.38
2022-12-15T23:15:19.854Z,39.70
2022-12-15T23:18:23.483Z,38.03
2022-12-15T23:21:28.076Z,36.08
2022-12-15T23:24:31.581Z,38.00
2022-12-15T23:27:33.707Z,37.40
2022-12-15T23:30:37.012Z,38.17
2022-12-15T23:33:38.918Z,42.05
2022-12-15T23:36:40.827Z,40.83
2022-12-15T23:39:42.732Z,36.75
2022-12-15T23:42:44.610Z,36.00
2022-12-15T23:45:55.957Z,35.92
2022-12-15T23:48:58.328Z,35.20
2022-12-15T23:52:00.197Z,35.50
2022-12-15T23:55:03.974Z,34.90
2022-12-15T23:58:05.923Z,33.30
